createdAt,value
2023-05-05T00:10:41.760Z,16.11
2023-05-05T00:13:21.817Z,16.10
2023-05-05T00:15:55.082Z,16.08
2023-05-05T00:18:28.777Z,16.06
2023-05-05T00:21:02.086Z,16.04
2023-05-05T00:36:32.805Z,15.92
2023-05-05T00:39:06.028Z,15.91
2023-05-05T00:41:39.798Z,15.89
2023-05-05T00:44:13.134Z,15.86
2023-05-05T00:46:48.843Z,15.84
2023-05-05T00:49:22.275Z,15.82
2023-05-05T00:51:57.785Z,15.79
2023-05-05T01:02:27.823Z,15.72
2023-05-05T01:05:08.802Z,15.69
2023-05-05T01:08:03.535Z,15.67
2023-05-05T01:10:51.791Z,15.62
2023-05-05T01:13:45.625Z,15.60
2023-05-05T01:16:31.880Z,15.57
2023-05-05T01:31:56.970Z,15.46
2023-05-05T01:34:44.789Z,15.46
2023-05-05T01:37:22.490Z,15.43
2023-05-05T01:40:09.937Z,15.45
2023-05-05T01:42:45.215Z,15.43
2023-05-05T01:56:06.748Z,15.38
2023-05-05T01:58:52.801Z,15.36
2023-05-05T02:01:27.417Z,15.34
2023-05-05T02:04:03.780Z,15.31
2023-05-05T02:06:39.909Z,15.30
2023-05-05T02:09:19.810Z,15.29
2023-05-05T02:11:58.280Z,15.27
2023-05-05T02:24:53.751Z,15.19
2023-05-05T02:27:39.799Z,15.18
2023-05-05T02:30:17.625Z,15.15
2023-05-05T02:33:12.798Z,15.13
2023-05-05T02:35:49.056Z,15.15
2023-05-05T02:38:25.761Z,15.15
2023-05-05T02:51:40.765Z,15.12
2023-05-05T02:54:26.982Z,15.10
2023-05-05T02:57:10.780Z,15.09
2023-05-05T02:59:56.317Z,15.05
2023-05-05T03:02:51.001Z,15.06
2023-05-05T03:16:24.904Z,14.97
2023-05-05T03:19:00.305Z,14.94
2023-05-05T03:21:34.791Z,14.93
2023-05-05T03:24:16.037Z,14.92
2023-05-05T03:27:03.774Z,14.92
2023-05-05T03:29:42.449Z,14.89
2023-05-05T03:32:21.778Z,14.88
2023-05-05T03:45:32.833Z,14.83
2023-05-05T03:48:08.483Z,14.83
2023-05-05T03:50:42.773Z,14.83
2023-05-05T03:53:18.206Z,14.82
2023-05-05T03:55:51.768Z,14.82
2023-05-05T03:58:25.073Z,14.82
2023-05-05T04:11:15.761Z,14.83
2023-05-05T04:13:56.871Z,14.85
2023-05-05T04:16:31.019Z,14.86
2023-05-05T04:19:05.804Z,14.86
2023-05-05T04:21:40.019Z,14.85
2023-05-05T04:37:55.775Z,14.83
2023-05-05T04:40:29.475Z,14.85
2023-05-05T04:43:04.777Z,14.87
2023-05-05T04:45:38.412Z,14.88
2023-05-05T04:48:12.791Z,14.89
2023-05-05T04:50:46.302Z,14.90
2023-05-05T04:53:21.770Z,14.91
2023-05-05T05:03:21.820Z,14.96
2023-05-05T05:06:01.767Z,14.99
2023-05-05T05:08:38.386Z,15.03
2023-05-05T05:11:18.784Z,15.06
2023-05-05T05:13:52.039Z,15.10
2023-05-05T05:16:26.907Z,15.14
2023-05-05T05:30:09.002Z,15.40
2023-05-05T05:32:49.808Z,15.43
2023-05-05T05:35:23.581Z,15.47
2023-05-05T05:37:57.788Z,15.53
2023-05-05T05:40:31.044Z,15.59
2023-05-05T05:43:04.775Z,15.65
2023-05-05T05:56:52.792Z,15.84
2023-05-05T05:59:26.073Z,15.90
2023-05-05T06:01:59.822Z,15.93
2023-05-05T06:04:33.698Z,15.97
2023-05-05T06:07:06.746Z,15.99
2023-05-05T06:09:40.172Z,16.02
2023-05-05T06:12:15.757Z,16.03
2023-05-05T06:25:25.772Z,16.21
2023-05-05T06:28:00.957Z,16.27
2023-05-05T06:30:34.807Z,16.36
2023-05-05T06:33:08.052Z,16.43
2023-05-05T06:35:42.820Z,16.50
2023-05-05T06:38:16.048Z,16.55
2023-05-05T06:51:06.772Z,16.89
2023-05-05T06:53:46.782Z,17.01
2023-05-05T06:56:19.996Z,17.10
2023-05-05T06:58:53.758Z,17.18
2023-05-05T07:01:27.214Z,17.30
2023-05-05T07:17:42.850Z,17.75
2023-05-05T07:20:16.064Z,17.82
2023-05-05T07:22:50.801Z,17.90
2023-05-05T07:25:24.006Z,17.94
2023-05-05T07:27:57.791Z,18.00
2023-05-05T07:30:31.013Z,18.01
2023-05-05T07:33:06.838Z,18.02
2023-05-05T07:46:16.867Z,18.04
2023-05-05T07:48:52.036Z,18.09
2023-05-05T07:51:25.754Z,18.14
2023-05-05T07:53:59.340Z,18.19
2023-05-05T07:56:32.761Z,18.27
2023-05-05T08:10:28.740Z,18.43
2023-05-05T08:13:03.968Z,18.46
2023-05-05T08:15:37.788Z,18.50
2023-05-05T08:18:11.009Z,18.55
2023-05-05T08:20:45.001Z,18.56
2023-05-05T08:23:18.029Z,18.58
2023-05-05T08:39:33.831Z,18.71
2023-05-05T08:42:07.379Z,18.78
2023-05-05T08:44:40.806Z,18.83
2023-05-05T08:47:15.665Z,18.93
2023-05-05T08:49:52.752Z,19.03
2023-05-05T08:52:33.247Z,19.13
2023-05-05T09:05:31.745Z,19.65
2023-05-05T09:08:11.756Z,19.74
2023-05-05T09:10:46.282Z,19.84
2023-05-05T09:13:19.882Z,19.90
2023-05-05T09:15:53.035Z,19.98
2023-05-05T09:18:26.784Z,20.04
2023-05-05T09:31:41.815Z,20.41
2023-05-05T09:34:16.403Z,20.49
2023-05-05T09:36:51.801Z,20.56
2023-05-05T09:39:25.314Z,20.65
2023-05-05T09:41:58.776Z,20.71
2023-05-05T09:44:36.711Z,20.78
2023-05-05T09:47:29.084Z,20.85
2023-05-05T09:57:37.746Z,21.17
2023-05-05T10:00:19.872Z,21.23
2023-05-05T10:03:02.959Z,21.30
2023-05-05T10:05:54.789Z,21.40
2023-05-05T10:08:30.759Z,21.49
2023-05-05T10:11:07.772Z,21.52
2023-05-05T10:13:41.329Z,21.58
2023-05-05T10:26:39.743Z,21.81
2023-05-05T10:29:29.804Z,21.83
2023-05-05T10:32:49.746Z,21.86
2023-05-05T10:35:28.030Z,21.95
2023-05-05T10:38:08.072Z,22.04
2023-05-05T10:51:35.311Z,22.45
2023-05-05T10:54:29.851Z,22.54
2023-05-05T10:57:06.690Z,22.59
2023-05-05T10:59:48.776Z,22.68
2023-05-05T11:02:24.734Z,22.78
2023-05-05T11:05:14.771Z,22.82
2023-05-05T11:07:51.437Z,22.90
2023-05-05T11:17:51.831Z,23.09
2023-05-05T11:21:01.407Z,23.20
2023-05-05T11:23:43.776Z,23.29
2023-05-05T11:26:38.897Z,23.37
2023-05-05T11:29:20.772Z,23.49
2023-05-05T11:32:12.666Z,23.58
2023-05-05T11:45:27.757Z,23.86
2023-05-05T11:48:31.802Z,23.87
2023-05-05T11:51:10.854Z,23.84
2023-05-05T11:53:52.809Z,23.86
2023-05-05T11:56:26.017Z,23.89
2023-05-05T12:11:41.771Z,23.95
2023-05-05T12:14:15.005Z,24.05
2023-05-05T12:17:00.780Z,24.12
2023-05-05T12:19:34.730Z,24.17
2023-05-05T12:22:10.806Z,24.23
2023-05-05T12:24:44.131Z,24.23
2023-05-05T12:27:19.792Z,24.22
2023-05-05T12:40:55.854Z,24.23
2023-05-05T12:43:33.452Z,24.26
2023-05-05T12:46:16.841Z,24.30
2023-05-05T12:49:01.648Z,24.30
2023-05-05T12:51:43.787Z,24.34
2023-05-05T13:05:00.816Z,24.67
2023-05-05T13:07:34.098Z,24.67
2023-05-05T13:10:19.785Z,24.66
2023-05-05T13:12:55.402Z,24.63
2023-05-05T13:15:28.814Z,24.69
2023-05-05T13:18:02.308Z,24.70
2023-05-05T13:31:35.906Z,24.65
2023-05-05T13:34:17.825Z,24.50
2023-05-05T13:36:51.049Z,24.43
2023-05-05T13:39:24.789Z,24.38
2023-05-05T13:41:58.098Z,24.35
2023-05-05T13:44:31.877Z,24.36
2023-05-05T13:47:05.248Z,24.40
2023-05-05T13:59:55.769Z,24.49
2023-05-05T14:02:35.849Z,24.50
2023-05-05T14:05:09.966Z,24.57
2023-05-05T14:07:43.813Z,24.58
2023-05-05T14:10:17.025Z,24.60
2023-05-05T14:12:50.827Z,24.62
2023-05-05T14:26:03.821Z,24.51
2023-05-05T14:28:37.107Z,24.53
2023-05-05T14:31:10.821Z,24.53
2023-05-05T14:33:44.072Z,24.57
2023-05-05T14:36:17.803Z,24.63
2023-05-05T14:38:51.186Z,24.69
2023-05-05T14:51:56.908Z,24.52
2023-05-05T14:54:37.568Z,24.46
2023-05-05T14:57:11.089Z,24.40
2023-05-05T14:59:44.864Z,24.33
2023-05-05T15:02:18.084Z,24.27
2023-05-05T15:04:51.847Z,24.22
2023-05-05T15:07:27.020Z,24.13
2023-05-05T15:20:15.759Z,23.86
2023-05-05T15:22:57.812Z,23.81
2023-05-05T15:25:31.143Z,23.75
2023-05-05T15:28:04.832Z,23.70
2023-05-05T15:30:38.198Z,23.67
2023-05-05T15:33:11.825Z,23.65
2023-05-05T15:46:23.872Z,23.40
2023-05-05T15:48:57.078Z,23.40
2023-05-05T15:54:02.351Z,23.38
2023-05-05T15:56:29.290Z,23.39
2023-05-05T15:59:09.778Z,23.40
2023-05-05T16:12:28.810Z,23.29
2023-05-05T16:15:02.144Z,23.25
2023-05-05T16:17:35.837Z,23.20
2023-05-05T16:20:11.279Z,23.13
2023-05-05T16:22:44.821Z,23.08
2023-05-05T16:25:18.426Z,23.00
2023-05-05T16:27:53.808Z,22.94
2023-05-05T16:41:13.936Z,22.57
2023-05-05T16:43:49.067Z,22.49
2023-05-05T16:46:22.871Z,22.42
2023-05-05T16:48:56.093Z,22.37
2023-05-05T16:51:29.807Z,22.34
2023-05-05T16:54:20.591Z,22.29
2023-05-05T17:07:24.783Z,22.05
2023-05-05T17:10:04.817Z,21.99
2023-05-05T17:12:38.088Z,21.93
2023-05-05T17:15:13.818Z,21.89
2023-05-05T17:17:46.985Z,21.88
2023-05-05T17:34:08.811Z,21.64
2023-05-05T17:36:42.127Z,21.58
2023-05-05T17:39:16.801Z,21.54
2023-05-05T17:41:50.040Z,21.50
2023-05-05T17:44:23.813Z,21.45
2023-05-05T17:46:57.256Z,21.39
2023-05-05T17:59:47.785Z,21.13
2023-05-05T18:02:28.930Z,21.06
2023-05-05T18:05:02.117Z,21.03
2023-05-05T18:07:35.834Z,21.01
2023-05-05T18:10:10.112Z,20.98
2023-05-05T18:12:43.847Z,20.93
2023-05-05T18:25:56.840Z,20.73
2023-05-05T18:28:30.036Z,20.68
2023-05-05T18:31:03.883Z,20.63
2023-05-05T18:33:37.146Z,20.56
2023-05-05T18:36:11.818Z,20.53
2023-05-05T18:38:45.890Z,20.48
2023-05-05T18:55:00.803Z,20.26
2023-05-05T18:57:34.076Z,20.21
2023-05-05T19:00:07.838Z,20.19
2023-05-05T19:02:41.149Z,20.16
2023-05-05T19:05:16.841Z,20.13
2023-05-05T19:07:50.067Z,20.10
2023-05-05T19:20:40.776Z,19.97
2023-05-05T19:23:20.823Z,19.96
2023-05-05T19:25:54.420Z,19.92
2023-05-05T19:28:27.826Z,19.91
2023-05-05T19:31:01.272Z,19.89
2023-05-05T19:33:34.826Z,19.86
2023-05-05T19:46:46.842Z,19.72
2023-05-05T19:49:20.035Z,19.70
2023-05-05T19:51:53.797Z,19.68
2023-05-05T19:54:27.357Z,19.68
2023-05-05T19:57:01.808Z,19.67
2023-05-05T20:13:38.768Z,19.45
2023-05-05T20:16:18.871Z,19.41
2023-05-05T20:18:52.273Z,19.39
2023-05-05T20:21:25.838Z,19.37
2023-05-05T20:23:59.046Z,19.34
2023-05-05T20:26:32.814Z,19.31
2023-05-05T20:29:07.980Z,19.25
2023-05-05T20:41:55.798Z,19.09
2023-05-05T20:44:37.813Z,19.07
2023-05-05T20:47:11.174Z,19.07
2023-05-05T20:49:44.830Z,19.04
2023-05-05T20:52:18.286Z,19.02
2023-05-05T21:08:33.825Z,18.93
2023-05-05T21:11:09.067Z,18.93
2023-05-05T21:13:43.878Z,18.93
2023-05-05T21:16:17.068Z,18.93
2023-05-05T21:18:50.817Z,18.93
2023-05-05T21:21:24.184Z,18.95
2023-05-05T21:23:59.805Z,18.94
2023-05-05T21:33:44.798Z,18.98
2023-05-05T21:36:24.881Z,19.01
2023-05-05T21:39:00.500Z,19.00
2023-05-05T21:41:34.835Z,19.00
2023-05-05T21:44:08.178Z,19.00
2023-05-05T21:46:41.859Z,18.97
2023-05-05T21:49:17.394Z,18.96
2023-05-05T22:02:07.798Z,18.93
2023-05-05T22:04:47.845Z,18.93
2023-05-05T22:07:21.039Z,18.94
2023-05-05T22:09:54.806Z,18.96
2023-05-05T22:12:28.058Z,18.98
2023-05-05T22:28:43.828Z,18.98
2023-05-05T22:31:17.120Z,18.93
2023-05-05T22:33:50.816Z,18.91
2023-05-05T22:36:24.295Z,18.88
2023-05-05T22:38:57.836Z,18.88
2023-05-05T22:41:37.952Z,18.86
2023-05-05T22:44:19.842Z,18.87
2023-05-05T22:54:04.804Z,18.66
2023-05-05T22:56:44.826Z,18.61
2023-05-05T22:59:20.030Z,18.55
2023-05-05T23:04:24.260Z,18.47
2023-05-05T23:06:51.113Z,18.44
2023-05-05T23:09:30.829Z,18.43
2023-05-05T23:20:07.792Z,18.44
2023-05-05T23:22:49.817Z,18.43
2023-05-05T23:25:23.320Z,18.40
2023-05-05T23:27:56.824Z,18.39
2023-05-05T23:30:30.140Z,18.42
2023-05-05T23:33:03.862Z,18.43
2023-05-05T23:47:00.890Z,18.46
2023-05-05T23:49:34.114Z,18.46
2023-05-05T23:52:07.828Z,18.46
2023-05-05T23:54:41.099Z,18.46
2023-05-05T23:57:14.821Z,18.45
2023-05-05T23:59:48.310Z,18.45
